Time;durP1;ratioP1;P1;durP2;ratioP2;P2;SDS_P1;SDS_P2;PMS_P1;PMS_P2;Temp;Humidity;BMP_temperature;BMP_pressure;BME280_temperature;BME280_humidity;BME280_pressure;Samples;Min_cycle;Max_cycle;Signal;HPM_P1;HPM_P2
2022/01/18 00:01:35;;;;;;;35.87;16.00;;;;;5.50;103287.00;;;;9919809;29;20256;-78
2022/01/18 00:06:40;;;;;;;41.37;16.87;;;;;5.50;103291.00;;;;9934982;29;20219;-78
2022/01/18 00:11:47;;;;;;;33.17;16.30;;;;;5.60;103295.00;;;;9918733;29;20203;-78
2022/01/18 00:17:06;;;;;;;37.00;17.40;;;;;5.60;103297.00;;;;9927924;29;20214;-78
2022/01/18 00:22:12;;;;;;;33.20;16.40;;;;;5.60;103295.00;;;;9918214;29;20214;-77
2022/01/18 00:27:14;;;;;;;34.27;15.47;;;;;5.60;103301.00;;;;9903422;29;20196;-77
2022/01/18 00:37:34;;;;;;;35.70;16.17;;;;;5.60;103317.00;;;;9902886;29;20694;-77
2022/01/18 00:42:37;;;;;;;35.97;18.53;;;;;5.60;103318.00;;;;9903318;29;20576;-77
2022/01/18 00:47:39;;;;;;;37.93;17.53;;;;;5.60;103318.00;;;;9903303;29;20622;-77
2022/01/18 00:52:43;;;;;;;38.33;18.33;;;;;5.60;103318.00;;;;9918011;29;20206;-77
2022/01/18 00:57:45;;;;;;;41.83;18.93;;;;;5.60;103311.00;;;;9917400;29;20219;-77
2022/01/18 01:02:48;;;;;;;42.50;18.00;;;;;5.60;103313.00;;;;9917607;29;20233;-77
2022/01/18 01:07:50;;;;;;;45.77;18.20;;;;;5.60;103325.00;;;;9917274;29;20235;-77
2022/01/18 01:13:05;;;;;;;46.87;18.87;;;;;5.60;103334.00;;;;9947773;29;20629;-77
2022/01/18 01:18:29;;;;;;;50.57;19.83;;;;;5.60;103330.00;;;;9934133;29;20258;-77
2022/01/18 01:45:02;;;;;;;40.73;20.37;;;;;5.70;103325.00;;;;9901781;29;20203;-77
2022/01/18 01:50:17;;;;;;;44.03;20.53;;;;;5.70;103319.00;;;;9901699;29;20656;-77
2022/01/18 01:55:19;;;;;;;48.10;20.73;;;;;5.70;103322.00;;;;9917234;29;20229;-77
2022/01/18 02:00:22;;;;;;;59.30;22.93;;;;;5.70;103321.00;;;;9900090;29;20203;-77
2022/01/18 02:05:24;;;;;;;46.37;22.10;;;;;5.70;103320.00;;;;9901166;29;20242;-77
2022/01/18 02:10:26;;;;;;;53.93;21.70;;;;;5.70;103311.00;;;;9924649;29;20238;-77
2022/01/18 02:15:28;;;;;;;50.53;22.30;;;;;5.80;103319.00;;;;9923449;29;20359;-77
2022/01/18 02:25:57;;;;;;;50.30;23.40;;;;;5.80;103303.00;;;;9899338;29;20234;-77
2022/01/18 02:30:59;;;;;;;50.73;23.97;;;;;5.80;103299.00;;;;9915224;29;20278;-77
2022/01/18 02:36:07;;;;;;;49.53;23.03;;;;;5.70;103295.00;;;;9881435;30;20215;-77
2022/01/18 02:41:09;;;;;;;60.47;23.63;;;;;5.70;103296.00;;;;9878595;30;20276;-77
2022/01/18 02:46:11;;;;;;;62.53;24.90;;;;;5.70;103303.00;;;;9894197;29;20199;-77
2022/01/18 02:51:13;;;;;;;67.50;26.00;;;;;5.70;103296.00;;;;9946533;29;20212;-77
2022/01/18 02:56:15;;;;;;;56.40;24.90;;;;;5.70;103281.00;;;;9922650;29;20722;-77
2022/01/18 03:06:38;;;;;;;76.13;26.47;;;;;5.70;103291.00;;;;9951628;29;20580;-77
2022/01/18 03:11:39;;;;;;;74.67;27.90;;;;;5.70;103291.00;;;;9925256;29;20266;-77
2022/01/18 03:16:42;;;;;;;66.30;27.97;;;;;5.70;103300.00;;;;9906794;29;20219;-77
2022/01/18 03:21:44;;;;;;;79.00;28.50;;;;;5.60;103311.00;;;;9921451;29;20210;-77
2022/01/18 03:32:07;;;;;;;82.97;30.07;;;;;5.60;103302.00;;;;9936229;29;20268;-77
2022/01/18 03:37:09;;;;;;;81.03;28.60;;;;;5.60;103289.00;;;;9946705;29;20214;-77
2022/01/18 03:47:33;;;;;;;64.57;25.97;;;;;5.60;103306.00;;;;9898101;30;20656;-77
2022/01/18 03:52:35;;;;;;;59.33;25.50;;;;;5.50;103311.00;;;;9906692;29;20571;-77
2022/01/18 03:57:39;;;;;;;68.03;23.13;;;;;5.40;103320.00;;;;9912047;29;20706;-77
2022/01/18 04:02:41;;;;;;;53.23;18.80;;;;;5.30;103309.00;;;;9890288;29;20560;-77
2022/01/18 04:07:44;;;;;;;81.43;18.87;;;;;5.20;103318.00;;;;9920492;29;20624;-77
2022/01/18 04:12:47;;;;;;;57.20;17.90;;;;;5.10;103322.00;;;;9909637;29;20215;-77
2022/01/18 04:18:09;;;;;;;62.47;20.70;;;;;5.00;103334.00;;;;9911610;29;20211;-77
2022/01/18 04:28:38;;;;;;;47.03;17.83;;;;;5.00;103327.00;;;;9934111;29;20656;-77
2022/01/18 04:33:40;;;;;;;46.87;18.53;;;;;5.00;103337.00;;;;9900438;29;20198;-77
2022/01/18 04:38:42;;;;;;;50.90;19.67;;;;;5.00;103335.00;;;;9919260;29;20591;-77
2022/01/18 04:48:49;;;;;;;60.70;21.23;;;;;5.10;103333.00;;;;9918448;29;20226;-77
2022/01/18 04:53:55;;;;;;;53.33;21.30;;;;;5.00;103340.00;;;;9918247;29;20207;-77
2022/01/18 04:58:57;;;;;;;50.80;21.33;;;;;4.90;103340.00;;;;9903469;29;20699;-77
2022/01/18 05:04:00;;;;;;;56.83;20.23;;;;;4.90;103343.00;;;;9917660;29;20252;-77
2022/01/18 05:09:08;;;;;;;58.90;19.73;;;;;4.80;103346.00;;;;9902763;29;20230;-77
2022/01/18 05:24:35;;;;;;;56.37;18.20;;;;;4.70;103354.00;;;;9931877;29;20199;-77
2022/01/18 05:29:37;;;;;;;72.43;19.13;;;;;4.70;103351.00;;;;9916898;29;20203;-77
2022/01/18 05:34:39;;;;;;;49.20;18.03;;;;;4.70;103360.00;;;;9945464;29;20202;-77
2022/01/18 05:39:41;;;;;;;59.57;20.60;;;;;4.70;103360.00;;;;9919965;29;20751;-77
2022/01/18 05:44:43;;;;;;;45.63;18.97;;;;;4.70;103358.00;;;;9901549;29;20203;-77
2022/01/18 05:49:45;;;;;;;40.73;19.03;;;;;4.70;103358.00;;;;9956797;29;20201;-77
2022/01/18 05:54:47;;;;;;;42.03;18.23;;;;;4.70;103364.00;;;;9952248;29;20251;-77
2022/01/18 05:59:50;;;;;;;41.43;19.47;;;;;4.60;103355.00;;;;9922024;29;20226;-77
2022/01/18 06:10:13;;;;;;;41.60;18.60;;;;;4.60;103366.00;;;;9930020;29;20273;-77
2022/01/18 06:15:15;;;;;;;44.00;17.77;;;;;4.60;103362.00;;;;9931741;29;20203;-77
2022/01/18 06:20:17;;;;;;;44.23;17.50;;;;;4.50;103354.00;;;;9879029;30;20195;-77
2022/01/18 06:25:20;;;;;;;41.50;18.07;;;;;4.60;103357.00;;;;9849233;30;20712;-77
2022/01/18 06:30:22;;;;;;;41.93;17.40;;;;;4.60;103355.00;;;;9888804;29;20210;-77
2022/01/18 06:35:24;;;;;;;37.53;15.90;;;;;4.60;103353.00;;;;9922447;29;20203;-77
2022/01/18 06:40:26;;;;;;;43.47;16.03;;;;;4.60;103357.00;;;;9907510;29;20203;-77
2022/01/18 06:45:28;;;;;;;45.80;16.07;;;;;4.60;103362.00;;;;9904269;29;20221;-77
2022/01/18 06:50:30;;;;;;;46.87;17.27;;;;;4.70;103360.00;;;;9877579;30;20218;-77
2022/01/18 06:55:32;;;;;;;44.37;15.87;;;;;4.70;103369.00;;;;9937314;29;20218;-77
2022/01/18 07:00:34;;;;;;;51.73;16.90;;;;;4.60;103368.00;;;;9921197;29;20211;-77
2022/01/18 07:05:37;;;;;;;35.63;16.07;;;;;4.60;103359.00;;;;9900309;29;20207;-78
2022/01/18 07:10:39;;;;;;;44.77;16.03;;;;;4.70;103368.00;;;;9890292;29;20235;-78
2022/01/18 07:15:41;;;;;;;41.47;16.47;;;;;4.70;103361.00;;;;9900274;29;20263;-78
2022/01/18 07:20:45;;;;;;;40.47;15.70;;;;;4.70;103371.00;;;;9921117;29;20203;-78
2022/01/18 07:25:48;;;;;;;39.50;15.37;;;;;4.80;103371.00;;;;9883651;30;20199;-78
2022/01/18 07:30:50;;;;;;;39.90;15.67;;;;;4.80;103371.00;;;;9889920;29;20206;-78
2022/01/18 07:35:52;;;;;;;42.57;15.17;;;;;4.80;103375.00;;;;9929578;29;20214;-78
2022/01/18 07:40:54;;;;;;;43.07;15.10;;;;;4.80;103366.00;;;;9916523;29;20211;-78
2022/01/18 07:45:56;;;;;;;38.67;16.80;;;;;4.90;103371.00;;;;9891482;29;20249;-78
2022/01/18 07:50:58;;;;;;;44.10;15.27;;;;;5.00;103379.00;;;;9922699;29;20575;-78
2022/01/18 07:56:01;;;;;;;43.90;15.73;;;;;5.00;103388.00;;;;9958688;29;20218;-78
2022/01/18 08:01:03;;;;;;;37.53;15.27;;;;;5.00;103390.00;;;;9973433;29;20203;-78
2022/01/18 08:06:05;;;;;;;41.47;14.83;;;;;5.10;103391.00;;;;9928032;29;20335;-78
2022/01/18 08:11:07;;;;;;;35.60;14.90;;;;;5.10;103387.00;;;;9928527;29;20225;-78
2022/01/18 08:21:31;;;;;;;41.63;17.20;;;;;5.20;103382.00;;;;9883289;30;20238;-78
2022/01/18 08:26:33;;;;;;;43.57;16.50;;;;;5.20;103394.00;;;;9882637;30;20635;-78
2022/01/18 08:31:35;;;;;;;53.30;17.87;;;;;5.30;103382.00;;;;9867718;30;20962;-78
2022/01/18 08:36:38;;;;;;;53.53;17.57;;;;;5.30;103390.00;;;;9924017;29;20587;-78
2022/01/18 08:41:40;;;;;;;52.60;19.63;;;;;5.30;103384.00;;;;9923352;29;20243;-78
2022/01/18 08:46:43;;;;;;;48.20;18.03;;;;;5.30;103384.00;;;;9935254;29;20198;-78
2022/01/18 08:51:45;;;;;;;54.83;18.30;;;;;5.40;103398.00;;;;9918863;29;20574;-78
2022/01/18 08:56:47;;;;;;;51.17;19.17;;;;;5.40;103391.00;;;;9918332;29;20557;-78
2022/01/18 09:01:57;;;;;;;42.90;18.47;;;;;5.50;103390.00;;;;9932930;29;20201;-78
2022/01/18 09:07:07;;;;;;;49.30;17.90;;;;;5.50;103389.00;;;;9883044;29;20322;-78
2022/01/18 09:12:13;;;;;;;53.47;21.73;;;;;5.60;103399.00;;;;9953626;29;20206;-78
2022/01/18 09:17:15;;;;;;;49.27;22.80;;;;;5.60;103411.00;;;;9911332;29;20219;-78
2022/01/18 09:22:17;;;;;;;59.43;20.33;;;;;5.60;103393.00;;;;9899747;29;20292;-78
2022/01/18 09:27:18;;;;;;;50.97;20.30;;;;;5.70;103398.00;;;;9916073;29;20203;-78
2022/01/18 09:32:22;;;;;;;57.90;20.80;;;;;5.80;103396.00;;;;9915997;29;20203;-78
2022/01/18 09:37:24;;;;;;;63.43;21.67;;;;;5.80;103398.00;;;;9900936;29;20218;-78
2022/01/18 09:42:33;;;;;;;54.67;20.97;;;;;5.90;103399.00;;;;9915835;29;20203;-78
2022/01/18 09:47:36;;;;;;;54.77;22.00;;;;;6.00;103397.00;;;;9900274;29;20205;-78
2022/01/18 09:52:38;;;;;;;58.93;23.33;;;;;6.10;103398.00;;;;9915592;29;20278;-78
2022/01/18 09:57:40;;;;;;;56.80;24.60;;;;;6.40;103404.00;;;;9915002;29;20679;-78
2022/01/18 10:02:42;;;;;;;63.43;23.63;;;;;6.50;103402.00;;;;9915534;29;20203;-78
2022/01/18 10:07:45;;;;;;;55.60;23.23;;;;;6.70;103410.00;;;;9894177;29;1134076;-78
2022/01/18 10:12:57;;;;;;;58.17;23.67;;;;;6.90;103396.00;;;;9947388;29;20203;-78
2022/01/18 10:18:06;;;;;;;54.20;23.33;;;;;7.10;103414.00;;;;9901004;29;20268;-78
2022/01/18 10:23:19;;;;;;;54.87;22.30;;;;;7.30;103408.00;;;;9915873;29;20252;-78
2022/01/18 10:28:57;;;;;;;56.27;21.97;;;;;7.30;103404.00;;;;9891235;29;20211;-78
2022/01/18 10:34:15;;;;;;;58.67;23.27;;;;;7.50;103398.00;;;;9909299;29;20257;-78
2022/01/18 10:39:25;;;;;;;48.63;24.47;;;;;7.60;103396.00;;;;9915950;29;20284;-78
2022/01/18 10:44:31;;;;;;;55.90;24.17;;;;;7.80;103393.00;;;;9921792;29;20191;-78
2022/01/18 10:49:40;;;;;;;49.20;22.87;;;;;8.10;103393.00;;;;9920640;29;20199;-78
2022/01/18 10:54:54;;;;;;;50.93;20.90;;;;;8.50;103394.00;;;;9916065;29;20251;-78
2022/01/18 11:00:08;;;;;;;42.50;19.57;;;;;8.80;103390.00;;;;9915682;29;20234;-77
2022/01/18 11:05:19;;;;;;;46.47;20.30;;;;;9.00;103380.00;;;;9915552;29;20631;-78
2022/01/18 11:10:24;;;;;;;38.00;18.27;;;;;9.00;103374.00;;;;9893888;30;20585;-78
2022/01/18 11:15:27;;;;;;;37.40;17.10;;;;;9.10;103368.00;;;;9909470;29;20211;-78
2022/01/18 11:20:34;;;;;;;39.67;16.23;;;;;9.20;103364.00;;;;9949600;29;20218;-78
2022/01/18 11:25:37;;;;;;;40.73;16.90;;;;;9.30;103353.00;;;;9959460;29;20232;-78
2022/01/18 11:30:42;;;;;;;42.80;15.33;;;;;9.40;103342.00;;;;9959355;29;20616;-78
2022/01/18 11:35:47;;;;;;;28.90;14.43;;;;;9.50;103329.00;;;;9972803;29;20195;-78
2022/01/18 11:40:54;;;;;;;31.73;12.57;;;;;9.70;103323.00;;;;9919700;29;20218;-78
2022/01/18 11:45:56;;;;;;;27.57;11.83;;;;;9.80;103318.00;;;;9942915;29;20203;-78
2022/01/18 11:51:06;;;;;;;30.63;12.47;;;;;10.00;103313.00;;;;9910038;29;20202;-78
2022/01/18 11:56:30;;;;;;;25.30;11.03;;;;;10.10;103295.00;;;;9919697;29;20199;-77
2022/01/18 12:02:05;;;;;;;22.90;9.87;;;;;10.30;103289.00;;;;9917840;29;20278;-77
2022/01/18 12:07:31;;;;;;;25.57;10.43;;;;;10.40;103278.00;;;;9842988;29;20224;-77
2022/01/18 12:12:39;;;;;;;19.30;8.47;;;;;10.20;103274.00;;;;9942565;29;20206;-78
2022/01/18 12:18:02;;;;;;;30.57;12.80;;;;;10.00;103271.00;;;;9869377;29;20223;-77
2022/01/18 12:23:20;;;;;;;15.53;5.97;;;;;9.90;103280.00;;;;9895560;30;20199;-77
2022/01/18 12:33:55;;;;;;;13.17;5.63;;;;;9.60;103274.00;;;;9904326;29;20196;-77
2022/01/18 12:39:03;;;;;;;14.00;4.63;;;;;9.60;103256.00;;;;9918183;29;20720;-78
2022/01/18 12:44:22;;;;;;;18.00;7.97;;;;;9.60;103254.00;;;;9894783;29;20267;-77
2022/01/18 12:49:25;;;;;;;15.97;6.03;;;;;9.50;103251.00;;;;9902673;29;20222;-77
2022/01/18 12:54:48;;;;;;;18.37;4.63;;;;;9.60;103246.00;;;;9918745;29;20206;-77
2022/01/18 13:00:00;;;;;;;19.27;5.63;;;;;9.70;103239.00;;;;9901414;29;20234;-77
2022/01/18 13:05:08;;;;;;;17.13;5.70;;;;;9.90;103240.00;;;;9916764;29;20204;-76
2022/01/18 13:10:10;;;;;;;18.20;7.60;;;;;9.80;103246.00;;;;9893745;29;20595;-77
2022/01/18 13:15:21;;;;;;;21.67;7.27;;;;;9.70;103249.00;;;;9890037;29;20212;-77
2022/01/18 13:26:03;;;;;;;17.53;6.40;;;;;9.40;103237.00;;;;9910044;30;20269;-77
2022/01/18 13:31:20;;;;;;;20.80;6.63;;;;;9.40;103226.00;;;;9929345;29;20206;-77
2022/01/18 13:36:23;;;;;;;13.80;5.77;;;;;9.40;103228.00;;;;9923631;29;20244;-78
2022/01/18 13:41:25;;;;;;;19.17;6.67;;;;;9.30;103222.00;;;;9903973;29;20213;-77
2022/01/18 13:46:29;;;;;;;15.97;7.10;;;;;9.30;103214.00;;;;9912595;29;20206;-77
2022/01/18 13:51:31;;;;;;;14.07;6.10;;;;;9.40;103208.00;;;;9931400;29;20218;-77
2022/01/18 13:56:33;;;;;;;16.57;6.83;;;;;9.50;103201.00;;;;9931080;29;20206;-78
2022/01/18 14:01:38;;;;;;;15.80;6.53;;;;;9.50;103189.00;;;;9953711;29;20255;-78
2022/01/18 14:06:41;;;;;;;22.10;6.60;;;;;9.30;103179.00;;;;9918762;29;20849;-78
2022/01/18 14:11:52;;;;;;;16.53;5.87;;;;;9.30;103173.00;;;;9923758;29;20866;-78
2022/01/18 14:17:11;;;;;;;14.43;6.70;;;;;9.00;103168.00;;;;9923805;29;20676;-78
2022/01/18 14:22:22;;;;;;;12.43;5.37;;;;;8.90;103165.00;;;;9898684;29;20203;-78
2022/01/18 14:27:31;;;;;;;16.67;6.83;;;;;9.00;103152.00;;;;9892574;30;20259;-79
2022/01/18 14:32:39;;;;;;;14.13;6.30;;;;;8.80;103143.00;;;;9909145;29;20206;-77
2022/01/18 14:37:47;;;;;;;24.10;6.87;;;;;8.60;103141.00;;;;9899199;29;20308;-77
2022/01/18 14:43:04;;;;;;;21.07;12.57;;;;;8.40;103123.00;;;;9890272;29;20200;-76
2022/01/18 14:48:15;;;;;;;25.17;13.73;;;;;8.30;103123.00;;;;9907700;29;20211;-77
2022/01/18 14:53:17;;;;;;;39.97;25.20;;;;;8.10;103111.00;;;;9894648;30;20224;-77
2022/01/18 14:58:19;;;;;;;21.40;11.33;;;;;8.00;103102.00;;;;9865557;30;20219;-77
2022/01/18 15:03:21;;;;;;;15.67;7.93;;;;;7.90;103097.00;;;;9930050;29;20576;-77
2022/01/18 15:08:24;;;;;;;16.53;8.23;;;;;7.80;103097.00;;;;9908364;29;20231;-77
2022/01/18 15:13:31;;;;;;;13.70;4.40;;;;;7.70;103086.00;;;;9943997;29;20203;-77
2022/01/18 15:18:32;;;;;;;19.77;5.70;;;;;7.60;103084.00;;;;9893681;29;20216;-77
2022/01/18 15:23:34;;;;;;;18.27;8.03;;;;;7.60;103091.00;;;;9917136;29;20206;-77
2022/01/18 15:28:36;;;;;;;19.23;7.20;;;;;7.40;103090.00;;;;9905577;29;20210;-76
2022/01/18 15:33:40;;;;;;;19.33;12.50;;;;;7.40;103092.00;;;;9893175;29;20287;-77
2022/01/18 15:38:42;;;;;;;22.10;15.80;;;;;7.40;103089.00;;;;9896699;29;20235;-77
2022/01/18 15:43:44;;;;;;;14.43;6.43;;;;;7.50;103084.00;;;;9903859;29;20206;-76
2022/01/18 15:48:47;;;;;;;23.60;9.37;;;;;7.50;103081.00;;;;9887584;29;20734;-77
2022/01/18 15:53:52;;;;;;;15.60;5.77;;;;;7.30;103071.00;;;;9917522;29;20549;-77
2022/01/18 15:58:55;;;;;;;16.77;5.40;;;;;7.00;103085.00;;;;9930162;29;20310;-77
2022/01/18 16:03:57;;;;;;;14.77;5.13;;;;;6.80;103073.00;;;;9905228;29;20256;-77
2022/01/18 16:09:00;;;;;;;17.10;5.57;;;;;6.60;103069.00;;;;9917764;29;20254;-77
2022/01/18 16:14:03;;;;;;;13.30;5.17;;;;;6.40;103060.00;;;;9919317;29;20211;-77
2022/01/18 16:19:05;;;;;;;17.33;5.77;;;;;6.10;103066.00;;;;9919962;29;20262;-77
2022/01/18 16:24:07;;;;;;;20.00;7.00;;;;;5.90;103066.00;;;;9918757;29;20217;-77
2022/01/18 16:29:09;;;;;;;22.43;6.30;;;;;5.80;103061.00;;;;9920024;29;20227;-77
2022/01/18 16:34:11;;;;;;;22.60;6.70;;;;;5.60;103050.00;;;;9903912;29;20226;-77
2022/01/18 16:39:13;;;;;;;21.17;6.40;;;;;5.40;103048.00;;;;9891841;29;20231;-78
2022/01/18 16:44:15;;;;;;;25.87;8.03;;;;;5.20;103054.00;;;;9915401;29;20218;-77
2022/01/18 16:49:18;;;;;;;25.27;9.67;;;;;5.00;103049.00;;;;9900455;29;20226;-77
2022/01/18 16:54:21;;;;;;;23.53;11.03;;;;;4.90;103049.00;;;;9917986;29;20259;-78
2022/01/18 16:59:23;;;;;;;34.23;13.40;;;;;4.70;103051.00;;;;9918375;29;20223;-77
2022/01/18 17:04:25;;;;;;;26.97;12.17;;;;;4.50;103035.00;;;;9903502;29;20207;-77
2022/01/18 17:09:28;;;;;;;29.37;14.53;;;;;4.30;103030.00;;;;9933200;29;20238;-77
2022/01/18 17:14:29;;;;;;;33.90;16.93;;;;;4.20;103030.00;;;;9923823;29;20276;-77
2022/01/18 17:19:32;;;;;;;35.50;17.47;;;;;4.10;103026.00;;;;9916902;29;20219;-77
2022/01/18 17:24:34;;;;;;;37.83;18.07;;;;;4.00;103013.00;;;;9902057;29;20195;-77
2022/01/18 17:29:36;;;;;;;43.00;20.93;;;;;3.90;103019.00;;;;9917543;29;20195;-77
2022/01/18 17:34:38;;;;;;;64.07;26.77;;;;;3.80;103010.00;;;;9944009;29;20744;-77
2022/01/18 17:39:40;;;;;;;44.57;20.40;;;;;3.70;103006.00;;;;9916034;29;20221;-77
2022/01/18 17:44:42;;;;;;;41.90;21.63;;;;;3.70;102991.00;;;;9901515;29;20225;-77
2022/01/18 17:49:44;;;;;;;40.10;21.47;;;;;3.60;102978.00;;;;9915683;29;20298;-78
2022/01/18 17:54:48;;;;;;;43.67;20.57;;;;;3.40;102968.00;;;;9915780;29;20203;-78
2022/01/18 17:59:50;;;;;;;35.67;19.17;;;;;3.30;102961.00;;;;9879324;30;20232;-78
2022/01/18 18:04:52;;;;;;;32.20;16.43;;;;;3.30;102971.00;;;;9884553;29;20236;-78
2022/01/18 18:09:53;;;;;;;34.90;17.63;;;;;3.20;102959.00;;;;9905707;29;20278;-78
2022/01/18 18:15:02;;;;;;;42.33;18.50;;;;;3.10;102959.00;;;;9900421;29;20225;-77
2022/01/18 18:20:04;;;;;;;48.57;20.47;;;;;3.00;102983.00;;;;9916155;29;20752;-78
2022/01/18 18:25:08;;;;;;;39.20;18.93;;;;;3.00;102992.00;;;;9930818;29;20671;-78
2022/01/18 18:30:15;;;;;;;39.20;19.87;;;;;3.00;102989.00;;;;9900851;29;20281;-78
2022/01/18 18:35:18;;;;;;;43.53;20.87;;;;;2.90;102973.00;;;;9922895;29;20210;-78
2022/01/18 18:40:30;;;;;;;40.93;18.53;;;;;2.90;102967.00;;;;9906619;29;20699;-78
2022/01/18 18:45:35;;;;;;;42.93;22.33;;;;;2.80;102953.00;;;;9926926;29;20243;-78
2022/01/18 18:50:40;;;;;;;49.37;24.10;;;;;2.70;102964.00;;;;9929134;29;20199;-78
2022/01/18 18:55:43;;;;;;;52.47;25.03;;;;;2.70;102998.00;;;;9930157;29;20199;-77
2022/01/18 19:00:49;;;;;;;53.67;22.27;;;;;2.70;103022.00;;;;9921596;29;20279;-77
2022/01/18 19:06:00;;;;;;;129.77;43.63;;;;;2.70;103015.00;;;;9923237;29;20206;-77
2022/01/18 19:11:03;;;;;;;64.53;28.00;;;;;2.80;103009.00;;;;9901127;29;20226;-78
2022/01/18 19:16:07;;;;;;;50.20;25.47;;;;;3.00;103009.00;;;;9919418;29;20213;-78
2022/01/18 19:21:09;;;;;;;54.03;26.00;;;;;3.10;102991.00;;;;9885054;29;20231;-77
2022/01/18 19:26:11;;;;;;;46.60;24.20;;;;;3.10;102996.00;;;;9903844;29;20204;-78
2022/01/18 19:31:13;;;;;;;50.07;25.40;;;;;3.10;102999.00;;;;9898533;30;20199;-77
2022/01/18 19:36:16;;;;;;;54.33;26.00;;;;;2.90;102982.00;;;;9903352;29;20203;-78
2022/01/18 19:41:18;;;;;;;49.33;28.67;;;;;2.80;102967.00;;;;9912574;29;20715;-78
2022/01/18 19:46:20;;;;;;;51.87;24.10;;;;;2.70;102963.00;;;;9919605;29;20264;-78
2022/01/18 19:51:22;;;;;;;53.33;24.93;;;;;2.70;102948.00;;;;9915062;29;20203;-78
2022/01/18 19:56:24;;;;;;;44.27;24.70;;;;;2.70;102940.00;;;;9907011;29;20223;-77
2022/01/18 20:01:26;;;;;;;51.73;22.93;;;;;2.70;102924.00;;;;9906242;29;20577;-77
2022/01/18 20:06:28;;;;;;;46.33;22.93;;;;;2.80;102924.00;;;;9889438;29;20778;-77
2022/01/18 20:11:38;;;;;;;50.53;26.10;;;;;2.70;102909.00;;;;9904312;29;20820;-77
2022/01/18 20:16:40;;;;;;;47.03;24.47;;;;;2.70;102914.00;;;;9889402;29;20218;-77
2022/01/18 20:21:42;;;;;;;53.40;24.53;;;;;2.70;102902.00;;;;9919818;29;20219;-78
2022/01/18 20:26:45;;;;;;;53.77;26.40;;;;;2.80;102889.00;;;;9921030;29;20203;-78
2022/01/18 20:31:47;;;;;;;54.13;25.87;;;;;2.80;102900.00;;;;9924267;29;20194;-78
2022/01/18 20:36:49;;;;;;;45.07;23.37;;;;;2.70;102890.00;;;;9941400;29;20267;-78
2022/01/18 20:47:12;;;;;;;43.30;23.03;;;;;2.40;102897.00;;;;9903080;29;20198;-78
2022/01/18 20:52:15;;;;;;;49.17;22.73;;;;;2.20;102891.00;;;;9920714;29;20248;-77
2022/01/18 20:57:17;;;;;;;41.80;22.10;;;;;2.10;102905.00;;;;9902228;29;20207;-78
2022/01/18 21:02:19;;;;;;;46.87;23.63;;;;;2.00;102911.00;;;;9923627;29;20214;-78
2022/01/18 21:07:21;;;;;;;49.40;23.47;;;;;1.90;102907.00;;;;9904077;29;20222;-78
2022/01/18 21:12:23;;;;;;;45.80;23.80;;;;;1.80;102900.00;;;;9923180;29;20244;-77
2022/01/18 21:17:26;;;;;;;44.60;23.37;;;;;1.70;102872.00;;;;9929057;29;20207;-78
2022/01/18 21:22:40;;;;;;;126.07;58.20;;;;;1.70;102859.00;;;;9914478;29;20194;-78
2022/01/18 21:28:19;;;;;;;54.90;28.53;;;;;1.50;102836.00;;;;9923729;29;20194;-78
2022/01/18 21:33:21;;;;;;;49.23;26.43;;;;;1.40;102845.00;;;;9953209;29;20205;-78
2022/01/18 21:38:23;;;;;;;44.10;25.70;;;;;1.30;102826.00;;;;9920201;29;20218;-78
2022/01/18 21:43:27;;;;;;;49.63;26.70;;;;;1.20;102824.00;;;;9887427;29;20199;-78
2022/01/18 21:48:29;;;;;;;50.90;27.47;;;;;1.10;102838.00;;;;9902471;29;20217;-78
2022/01/18 21:53:31;;;;;;;49.67;27.67;;;;;1.00;102842.00;;;;9918109;29;20203;-78
2022/01/18 21:58:33;;;;;;;57.00;31.33;;;;;0.90;102826.00;;;;9916613;29;20211;-78
2022/01/18 22:03:35;;;;;;;63.47;32.70;;;;;0.90;102827.00;;;;9931249;29;20229;-78
2022/01/18 22:08:37;;;;;;;57.70;33.03;;;;;0.80;102826.00;;;;9929084;29;20303;-77
2022/01/18 22:13:40;;;;;;;66.90;38.83;;;;;0.70;102851.00;;;;9916869;29;20297;-78
2022/01/18 22:18:43;;;;;;;57.27;31.63;;;;;0.70;102847.00;;;;9922174;29;20804;-78
2022/01/18 22:23:45;;;;;;;59.10;30.87;;;;;0.60;102832.00;;;;9921986;29;20199;-78
2022/01/18 22:28:48;;;;;;;53.67;30.50;;;;;0.60;102829.00;;;;9896220;29;20252;-78
2022/01/18 22:33:50;;;;;;;64.73;30.60;;;;;0.60;102800.00;;;;9901675;29;20263;-78
2022/01/18 22:38:51;;;;;;;65.07;32.27;;;;;0.60;102795.00;;;;9916630;29;20223;-78
2022/01/18 22:43:53;;;;;;;53.37;29.80;;;;;0.50;102790.00;;;;9916158;29;20272;-78
2022/01/18 22:48:55;;;;;;;55.13;30.53;;;;;0.50;102777.00;;;;9892838;29;20660;-78
2022/01/18 22:53:57;;;;;;;57.60;29.00;;;;;0.40;102782.00;;;;9917208;29;20252;-78
2022/01/18 22:59:00;;;;;;;62.40;30.17;;;;;0.40;102766.00;;;;9917364;29;20632;-78
2022/01/18 23:04:02;;;;;;;52.57;28.27;;;;;0.30;102777.00;;;;9938991;29;20210;-77
2022/01/18 23:09:04;;;;;;;54.37;28.57;;;;;0.30;102765.00;;;;9917931;29;20708;-78
2022/01/18 23:14:06;;;;;;;49.63;27.50;;;;;0.20;102740.00;;;;9922215;29;20695;-77
2022/01/18 23:19:08;;;;;;;51.20;26.27;;;;;0.20;102753.00;;;;9904449;29;20219;-77
2022/01/18 23:24:10;;;;;;;59.23;28.50;;;;;0.20;102748.00;;;;9913713;29;20247;-77
2022/01/18 23:29:13;;;;;;;54.37;26.83;;;;;0.20;102747.00;;;;9930777;29;20199;-77
2022/01/18 23:34:15;;;;;;;57.53;28.07;;;;;0.10;102741.00;;;;9908257;29;20680;-77
2022/01/18 23:39:23;;;;;;;54.77;26.23;;;;;0.00;102729.00;;;;9895509;29;20289;-77
2022/01/18 23:44:25;;;;;;;42.97;24.97;;;;;0.00;102720.00;;;;9913142;29;20228;-77
2022/01/18 23:49:27;;;;;;;44.10;26.37;;;;;-0.10;102707.00;;;;9919840;29;20191;-77
2022/01/18 23:54:30;;;;;;;43.80;27.03;;;;;-0.10;102696.00;;;;9909138;29;20287;-77
2022/01/18 23:59:32;;;;;;;54.33;27.73;;;;;-0.10;102672.00;;;;9933242;29;20268;-77
